createdAt,value
2018-08-13T00:01:58.446Z,100454.13
2018-08-13T00:04:26.855Z,100460.34
2018-08-13T00:06:55.261Z,100459.31
2018-08-13T00:09:29.117Z,100450.73
2018-08-13T00:11:57.777Z,100449.09
2018-08-13T00:14:26.120Z,100446.10
2018-08-13T00:16:54.465Z,100440.00
2018-08-13T00:19:22.842Z,100439.48
2018-08-13T00:21:52.265Z,100438.12
2018-08-13T00:24:21.381Z,100439.08
2018-08-13T00:26:50.637Z,100432.94
2018-08-13T00:29:20.429Z,100432.41
2018-08-13T00:31:49.899Z,100437.95
2018-08-13T00:34:19.027Z,100434.59
2018-08-13T00:36:47.362Z,100433.05
2018-08-13T00:39:15.743Z,100436.00
2018-08-13T00:41:44.173Z,100436.52
2018-08-13T00:44:12.534Z,100435.28
2018-08-13T00:46:40.880Z,100432.16
2018-08-13T00:49:10.038Z,100429.02
2018-08-13T00:51:38.992Z,100429.86
2018-08-13T00:54:08.039Z,100426.74
2018-08-13T00:56:38.077Z,100423.27
2018-08-13T00:59:07.784Z,100416.21
2018-08-13T01:01:36.692Z,100419.53
2018-08-13T01:04:05.033Z,100411.27
2018-08-13T01:06:35.430Z,100413.58
2018-08-13T01:09:06.484Z,100416.21
2018-08-13T01:11:34.816Z,100416.37
2018-08-13T01:14:03.456Z,100411.23
2018-08-13T01:16:31.917Z,100410.06
2018-08-13T01:19:00.309Z,100404.58
2018-08-13T01:21:28.745Z,100405.20
2018-08-13T01:23:57.077Z,100399.39
2018-08-13T01:26:25.413Z,100395.59
2018-08-13T01:28:53.969Z,100388.69
2018-08-13T01:31:22.301Z,100386.73
2018-08-13T01:33:51.345Z,100390.33
2018-08-13T01:36:20.806Z,100386.98
2018-08-13T01:38:49.129Z,100381.98
2018-08-13T01:41:17.477Z,100377.31
2018-08-13T01:43:45.813Z,100380.91
2018-08-13T01:46:14.134Z,100379.55
2018-08-13T01:48:42.460Z,100373.25
2018-08-13T01:51:10.776Z,100373.20
2018-08-13T01:53:39.289Z,100377.58
2018-08-13T01:56:09.072Z,100368.44
2018-08-13T01:58:37.789Z,100361.34
2018-08-13T02:01:07.775Z,100363.09
2018-08-13T02:03:36.744Z,100358.41
2018-08-13T02:06:05.152Z,100353.58
2018-08-13T02:08:33.568Z,100356.95
2018-08-13T02:11:01.924Z,100351.98
2018-08-13T02:13:30.253Z,100350.91
2018-08-13T02:15:59.452Z,100344.25
2018-08-13T02:18:27.814Z,100348.14
2018-08-13T02:20:56.124Z,100349.67
2018-08-13T02:23:24.501Z,100349.63
2018-08-13T02:25:53.802Z,100342.78
2018-08-13T02:28:23.455Z,100344.84
2018-08-13T02:30:52.884Z,100338.22
2018-08-13T02:33:22.198Z,100344.58
2018-08-13T02:35:50.561Z,100336.28
2018-08-13T02:38:18.961Z,100336.91
2018-08-13T02:40:48.224Z,100333.23
2018-08-13T02:43:16.581Z,100333.36
2018-08-13T02:45:45.863Z,100333.77
2018-08-13T02:48:14.249Z,100333.92
2018-08-13T02:50:42.693Z,100335.17
2018-08-13T02:53:11.896Z,100330.19
2018-08-13T02:55:41.252Z,100328.81
2018-08-13T02:58:09.600Z,100322.25
2018-08-13T03:00:39.196Z,100330.06
2018-08-13T03:03:09.083Z,100325.34
2018-08-13T03:05:39.580Z,100322.72
2018-08-13T03:08:09.917Z,100320.66
2018-08-13T03:10:40.053Z,100316.02
2018-08-13T03:13:10.820Z,100314.97
2018-08-13T03:15:40.083Z,100312.14
2018-08-13T03:18:09.568Z,100313.86
2018-08-13T03:20:39.610Z,100315.80
2018-08-13T03:23:08.630Z,100312.75
2018-08-13T03:25:38.869Z,100313.52
2018-08-13T03:28:08.949Z,100312.31
2018-08-13T03:30:37.943Z,100310.94
2018-08-13T03:33:07.460Z,100310.39
2018-08-13T03:35:37.801Z,100299.32
2018-08-13T03:38:07.940Z,100296.01
2018-08-13T03:40:38.002Z,100296.98
2018-08-13T03:43:06.824Z,100294.63
2018-08-13T03:45:35.156Z,100290.95
2018-08-13T03:48:03.653Z,100286.69
2018-08-13T03:50:32.862Z,100293.87
2018-08-13T03:53:02.120Z,100286.95
2018-08-13T03:55:31.595Z,100285.78
2018-08-13T03:58:00.972Z,100284.33
2018-08-13T04:00:30.509Z,100282.17
2018-08-13T04:02:59.781Z,100282.53
2018-08-13T04:05:29.020Z,100279.44
2018-08-13T04:07:57.825Z,100277.29
2018-08-13T04:10:26.158Z,100273.09
2018-08-13T04:12:55.551Z,100271.02
2018-08-13T04:15:24.688Z,100271.96
2018-08-13T04:17:53.124Z,100273.64
2018-08-13T04:20:23.868Z,100275.31
2018-08-13T04:22:53.072Z,100278.00
2018-08-13T04:25:23.809Z,100278.33
2018-08-13T04:27:53.179Z,100278.55
2018-08-13T04:30:23.821Z,100277.59
2018-08-13T04:32:53.206Z,100281.73
2018-08-13T04:35:22.554Z,100278.82
2018-08-13T04:37:51.636Z,100277.25
2018-08-13T04:40:20.748Z,100279.61
2018-08-13T04:42:49.128Z,100277.05
2018-08-13T04:45:17.477Z,100275.47
2018-08-13T04:47:52.034Z,100279.47
2018-08-13T04:50:20.641Z,100281.53
2018-08-13T04:52:49.120Z,100287.05
2018-08-13T04:55:17.977Z,100289.95
2018-08-13T04:57:47.497Z,100286.52
2018-08-13T05:00:15.838Z,100282.70
2018-08-13T05:02:44.156Z,100292.88
2018-08-13T05:05:12.854Z,100294.45
2018-08-13T05:07:41.308Z,100296.59
2018-08-13T05:10:10.820Z,100303.00
2018-08-13T05:12:40.920Z,100297.92
2018-08-13T05:15:10.865Z,100301.34
2018-08-13T05:17:39.200Z,100298.48
2018-08-13T05:20:09.937Z,100297.69
2018-08-13T05:22:39.125Z,100297.30
2018-08-13T05:25:10.809Z,100302.84
2018-08-13T05:27:41.142Z,100296.70
2018-08-13T05:30:11.757Z,100297.50
2018-08-13T05:32:40.112Z,100298.13
2018-08-13T05:35:10.799Z,100298.42
2018-08-13T05:37:40.139Z,100295.38
2018-08-13T05:40:10.550Z,100300.94
2018-08-13T05:42:40.226Z,100303.63
2018-08-13T05:45:10.694Z,100301.70
2018-08-13T05:47:40.247Z,100299.13
2018-08-13T05:50:11.006Z,100300.22
2018-08-13T05:52:40.857Z,100296.00
2018-08-13T05:55:10.149Z,100303.66
2018-08-13T05:57:39.685Z,100306.42
2018-08-13T06:00:11.057Z,100303.23
2018-08-13T06:02:42.467Z,100305.34
2018-08-13T06:05:12.886Z,100297.34
2018-08-13T06:07:42.513Z,100294.34
2018-08-13T06:10:12.658Z,100296.44
2018-08-13T06:12:42.303Z,100288.22
2018-08-13T06:15:13.580Z,100286.81
2018-08-13T06:17:42.945Z,100284.36
2018-08-13T06:20:12.377Z,100283.86
2018-08-13T06:22:42.236Z,100282.02
2018-08-13T06:25:12.407Z,100279.05
2018-08-13T06:27:40.848Z,100274.72
2018-08-13T06:30:12.275Z,100275.05
2018-08-13T06:32:41.343Z,100264.37
2018-08-13T06:35:10.206Z,100258.73
2018-08-13T06:37:39.596Z,100273.53
2018-08-13T06:40:10.077Z,100269.20
2018-08-13T06:42:39.648Z,100268.38
2018-08-13T06:45:09.408Z,100272.31
2018-08-13T06:47:38.788Z,100269.55
2018-08-13T06:50:09.645Z,100278.90
2018-08-13T06:52:38.008Z,100271.69
2018-08-13T06:55:07.007Z,100270.63
2018-08-13T06:57:35.941Z,100269.20
2018-08-13T07:00:06.945Z,100267.73
2018-08-13T07:02:35.253Z,100270.55
2018-08-13T07:05:03.926Z,100263.68
2018-08-13T07:07:32.285Z,100261.05
2018-08-13T07:10:00.650Z,100258.67
2018-08-13T07:12:28.999Z,100255.27
2018-08-13T07:14:57.415Z,100254.77
2018-08-13T07:17:25.886Z,100251.13
2018-08-13T07:19:54.344Z,100251.19
2018-08-13T07:22:22.756Z,100249.10
2018-08-13T07:24:51.931Z,100240.48
2018-08-13T07:27:21.540Z,100248.30
2018-08-13T07:29:50.498Z,100245.06
2018-08-13T07:32:18.885Z,100241.89
2018-08-13T07:34:48.201Z,100245.69
2018-08-13T07:37:17.501Z,100242.84
2018-08-13T07:39:45.939Z,100249.30
2018-08-13T07:42:14.270Z,100247.52
2018-08-13T07:44:43.610Z,100243.77
2018-08-13T07:47:11.936Z,100245.56
2018-08-13T07:49:40.309Z,100241.65
2018-08-13T07:52:10.201Z,100236.61
2018-08-13T07:54:39.541Z,100237.32
2018-08-13T07:57:09.144Z,100230.50
2018-08-13T07:59:37.556Z,100236.98
2018-08-13T08:02:07.257Z,100232.36
2018-08-13T08:04:35.793Z,100233.13
2018-08-13T08:07:05.073Z,100231.99
2018-08-13T08:09:33.436Z,100229.19
2018-08-13T08:12:01.760Z,100227.42
2018-08-13T08:14:30.129Z,100228.76
2018-08-13T08:16:58.573Z,100228.38
2018-08-13T08:19:27.049Z,100230.11
2018-08-13T08:21:55.499Z,100229.65
2018-08-13T08:24:23.849Z,100230.27
2018-08-13T08:26:52.929Z,100228.22
2018-08-13T08:29:23.799Z,100220.95
2018-08-13T08:31:53.237Z,100221.12
2018-08-13T08:34:24.071Z,100226.97
2018-08-13T08:36:53.780Z,100224.68
2018-08-13T08:39:23.433Z,100227.55
2018-08-13T08:41:53.417Z,100231.95
2018-08-13T08:44:22.308Z,100218.48
2018-08-13T08:46:50.682Z,100225.19
2018-08-13T08:49:19.024Z,100225.04
2018-08-13T08:51:48.257Z,100228.61
2018-08-13T08:54:16.590Z,100225.25
2018-08-13T08:56:45.870Z,100224.85
2018-08-13T08:59:15.011Z,100220.72
2018-08-13T09:01:44.437Z,100219.36
2018-08-13T09:04:13.653Z,100216.36
2018-08-13T09:06:43.002Z,100208.23
2018-08-13T09:09:13.158Z,100209.77
2018-08-13T09:11:42.096Z,100201.55
2018-08-13T09:14:10.488Z,100197.70
2018-08-13T09:16:42.059Z,100192.78
2018-08-13T09:19:21.898Z,100194.06
2018-08-13T09:21:52.610Z,100186.37
2018-08-13T09:24:32.403Z,100189.39
2018-08-13T09:27:12.146Z,100190.25
2018-08-13T09:29:51.816Z,100180.59
2018-08-13T09:32:33.845Z,100186.69
2018-08-13T09:35:38.695Z,100181.03
2018-08-13T09:38:08.176Z,100178.98
2018-08-13T09:40:36.561Z,100172.12
2018-08-13T09:43:04.898Z,100178.30
2018-08-13T09:45:33.389Z,100174.85
2018-08-13T09:48:01.903Z,100169.96
2018-08-13T09:50:30.237Z,100163.13
2018-08-13T09:52:58.580Z,100163.65
2018-08-13T09:55:27.971Z,100172.53
2018-08-13T09:57:57.212Z,100168.98
2018-08-13T10:00:30.836Z,100169.19
2018-08-13T10:02:59.164Z,100173.45
2018-08-13T10:05:27.504Z,100165.12
2018-08-13T10:07:55.836Z,100161.69
2018-08-13T10:10:24.177Z,100159.72
2018-08-13T10:12:53.660Z,100159.72
2018-08-13T10:15:22.801Z,100156.80
2018-08-13T10:17:52.675Z,100161.18
2018-08-13T10:20:21.826Z,100149.61
2018-08-13T10:22:51.472Z,100143.88
2018-08-13T10:25:21.009Z,100146.67
2018-08-13T10:27:50.402Z,100130.42
2018-08-13T10:30:18.753Z,100137.12
2018-08-13T10:32:47.094Z,100138.42
2018-08-13T10:35:15.452Z,100132.00
2018-08-13T10:37:43.813Z,100124.87
2018-08-13T10:40:15.232Z,100125.88
2018-08-13T10:42:43.633Z,100122.78
2018-08-13T10:45:11.989Z,100125.00
2018-08-13T10:47:40.411Z,100124.02
2018-08-13T10:50:11.417Z,100121.05
2018-08-13T10:52:39.945Z,100118.06
2018-08-13T10:55:08.948Z,100118.52
2018-08-13T10:57:38.043Z,100109.41
2018-08-13T11:00:09.643Z,100106.56
2018-08-13T11:02:40.166Z,100101.87
2018-08-13T11:05:10.858Z,100107.75
2018-08-13T11:07:40.536Z,100094.63
2018-08-13T11:10:11.343Z,100098.94
2018-08-13T11:12:39.789Z,100097.36
2018-08-13T11:15:24.231Z,100093.19
2018-08-13T11:17:54.110Z,100097.38
2018-08-13T11:20:24.052Z,100094.26
2018-08-13T11:22:54.118Z,100094.27
2018-08-13T11:25:24.550Z,100083.17
2018-08-13T11:27:52.898Z,100089.11
2018-08-13T11:30:22.378Z,100087.50
2018-08-13T11:32:50.768Z,100084.00
2018-08-13T11:35:19.096Z,100090.00
2018-08-13T11:37:48.396Z,100089.44
2018-08-13T11:40:18.590Z,100101.94
2018-08-13T11:42:46.966Z,100091.64
2018-08-13T11:45:15.317Z,100085.94
2018-08-13T11:47:43.651Z,100088.36
2018-08-13T11:50:15.120Z,100085.92
2018-08-13T11:52:44.649Z,100073.16
2018-08-13T11:55:13.025Z,100070.75
2018-08-13T11:57:44.381Z,100066.98
2018-08-13T12:00:13.346Z,100073.47
2018-08-13T12:02:41.722Z,100072.41
2018-08-13T12:05:12.818Z,100076.21
2018-08-13T12:07:41.328Z,100077.31
2018-08-13T12:10:11.414Z,100065.95
2018-08-13T12:12:40.697Z,100066.50
2018-08-13T12:15:10.945Z,100063.78
2018-08-13T12:17:41.095Z,100048.62
2018-08-13T12:20:12.353Z,100057.83
2018-08-13T12:22:41.980Z,100056.20
2018-08-13T12:25:10.770Z,100059.73
2018-08-13T12:27:40.325Z,100047.23
2018-08-13T12:30:10.557Z,100042.09
2018-08-13T12:32:39.931Z,100053.50
2018-08-13T12:35:09.048Z,100049.97
2018-08-13T12:37:38.644Z,100051.33
2018-08-13T12:40:10.262Z,100046.74
2018-08-13T12:42:40.222Z,100040.77
2018-08-13T12:45:15.855Z,100032.31
2018-08-13T12:47:45.336Z,100036.11
2018-08-13T12:50:14.841Z,100024.75
2018-08-13T12:52:45.277Z,100024.73
2018-08-13T12:55:14.829Z,100014.47
2018-08-13T12:57:44.218Z,100023.45
2018-08-13T13:00:15.638Z,100023.98
2018-08-13T13:02:45.060Z,100023.72
2018-08-13T13:05:15.581Z,100027.48
2018-08-13T13:07:44.868Z,100026.66
2018-08-13T13:10:14.700Z,100020.45
2018-08-13T13:12:44.256Z,100019.64
2018-08-13T13:15:14.888Z,100013.37
2018-08-13T13:17:43.400Z,100009.05
2018-08-13T13:20:17.129Z,100013.33
2018-08-13T13:22:46.810Z,100010.02
2018-08-13T13:25:16.532Z,100018.66
2018-08-13T13:27:45.914Z,100010.74
2018-08-13T13:30:16.232Z,100016.73
2018-08-13T13:32:44.992Z,100010.83
2018-08-13T13:35:15.233Z,100019.73
2018-08-13T13:37:44.481Z,100018.73
2018-08-13T13:40:14.926Z,100012.25
2018-08-13T13:42:44.429Z,100009.83
2018-08-13T13:45:14.753Z,100006.84
2018-08-13T13:47:43.104Z,100016.34
2018-08-13T13:50:13.781Z,100008.76
2018-08-13T13:52:42.469Z,100010.41
2018-08-13T13:55:10.983Z,100000.39
2018-08-13T13:57:40.487Z,100010.69
2018-08-13T14:00:15.644Z,100002.31
2018-08-13T14:02:44.285Z,99998.23
2018-08-13T14:05:12.698Z,100000.93
2018-08-13T14:07:41.060Z,100002.56
2018-08-13T14:10:15.136Z,100000.70
2018-08-13T14:12:44.186Z,99997.18
2018-08-13T14:15:14.020Z,99999.05
2018-08-13T14:17:43.013Z,100007.95
2018-08-13T14:20:11.736Z,100000.88
2018-08-13T14:22:40.457Z,100009.05
2018-08-13T14:25:11.993Z,100003.92
2018-08-13T14:27:41.593Z,100007.69
2018-08-13T14:30:17.303Z,99999.30
2018-08-13T14:32:45.961Z,99995.70
2018-08-13T14:35:14.400Z,100003.53
2018-08-13T14:37:42.758Z,100004.88
2018-08-13T14:40:12.386Z,100007.34
2018-08-13T14:42:41.009Z,99996.77
2018-08-13T14:45:11.393Z,99994.02
2018-08-13T14:47:40.601Z,100000.18
2018-08-13T14:50:11.063Z,100004.20
2018-08-13T14:52:41.404Z,99999.09
2018-08-13T14:55:11.697Z,99998.50
2018-08-13T14:57:40.185Z,100001.75
2018-08-13T15:00:14.156Z,99998.48
2018-08-13T15:02:43.719Z,99996.05
2018-08-13T15:05:12.245Z,100000.90
2018-08-13T15:07:40.598Z,100001.61
2018-08-13T15:10:13.085Z,100012.86
2018-08-13T15:12:43.390Z,100011.14
2018-08-13T15:15:13.334Z,100000.56
2018-08-13T15:17:42.748Z,100003.68
2018-08-13T15:20:14.121Z,100011.78
2018-08-13T15:22:43.497Z,100034.30
2018-08-13T15:25:13.013Z,100033.97
2018-08-13T15:27:41.515Z,100029.86
2018-08-13T15:30:14.716Z,100035.07
2018-08-13T15:32:45.000Z,100035.07
2018-08-13T15:35:13.424Z,100039.75
2018-08-13T15:37:42.314Z,100051.27
2018-08-13T15:40:11.634Z,100046.80
2018-08-13T15:42:40.198Z,100048.41
2018-08-13T15:45:12.262Z,100052.05
2018-08-13T15:47:40.853Z,100062.10
2018-08-13T15:50:11.080Z,100060.30
2018-08-13T15:52:40.738Z,100054.25
2018-08-13T15:55:10.356Z,100070.02
2018-08-13T15:57:40.104Z,100078.25
2018-08-13T16:00:09.943Z,100083.97
2018-08-13T16:02:38.442Z,100091.58
2018-08-13T16:05:09.069Z,100099.22
2018-08-13T16:07:38.245Z,100116.58
2018-08-13T16:10:09.596Z,100109.17
2018-08-13T16:12:38.377Z,100122.45
2018-08-13T16:15:08.188Z,100123.95
2018-08-13T16:17:38.373Z,100130.58
2018-08-13T16:20:10.513Z,100139.42
2018-08-13T16:22:40.881Z,100137.95
2018-08-13T16:25:10.372Z,100144.19
2018-08-13T16:27:39.708Z,100147.12
2018-08-13T16:30:16.110Z,100142.17
2018-08-13T16:32:44.815Z,100145.24
2018-08-13T16:35:14.221Z,100150.50
2018-08-13T16:37:43.885Z,100144.23
2018-08-13T16:40:12.269Z,100141.04
2018-08-13T16:42:41.049Z,100132.24
2018-08-13T16:45:11.625Z,100112.50
2018-08-13T16:47:40.831Z,100107.34
2018-08-13T16:50:15.026Z,100101.98
2018-08-13T16:52:43.564Z,100081.86
2018-08-13T16:55:12.670Z,100054.23
2018-08-13T16:57:41.817Z,100042.75
2018-08-13T17:00:12.526Z,100036.20
2018-08-13T17:02:41.277Z,100015.67
2018-08-13T17:05:11.501Z,100000.37
2018-08-13T17:07:42.171Z,99992.17
2018-08-13T17:10:14.768Z,100002.09
2018-08-13T17:12:43.229Z,100018.25
2018-08-13T17:15:12.270Z,100030.20
2018-08-13T17:17:40.649Z,100031.76
2018-08-13T17:20:12.522Z,100044.23
2018-08-13T17:22:41.741Z,100055.49
2018-08-13T17:25:12.257Z,100066.59
2018-08-13T17:27:41.461Z,100073.03
2018-08-13T17:30:14.041Z,100073.56
2018-08-13T17:32:42.630Z,100085.17
2018-08-13T17:35:12.083Z,100091.44
2018-08-13T17:37:41.382Z,100088.06
2018-08-13T17:40:12.446Z,100078.63
2018-08-13T17:42:40.828Z,100086.73
2018-08-13T17:45:10.572Z,100109.70
2018-08-13T17:47:39.993Z,100104.30
2018-08-13T17:50:11.285Z,100100.17
2018-08-13T17:52:40.846Z,100105.52
2018-08-13T17:55:10.617Z,100096.73
2018-08-13T17:57:40.296Z,100082.59
2018-08-13T18:00:12.497Z,100075.67
2018-08-13T18:02:41.097Z,100073.76
2018-08-13T18:05:12.116Z,100070.19
2018-08-13T18:07:40.540Z,100076.28
2018-08-13T18:10:14.030Z,100076.19
2018-08-13T18:12:43.421Z,100077.05
2018-08-13T18:15:14.203Z,100070.65
2018-08-13T18:17:42.813Z,100072.06
2018-08-13T18:20:11.669Z,100068.54
2018-08-13T18:22:40.834Z,100079.55
2018-08-13T18:25:11.801Z,100094.64
2018-08-13T18:27:42.647Z,100102.95
2018-08-13T18:30:20.725Z,100107.23
2018-08-13T18:32:49.133Z,100120.85
2018-08-13T18:35:17.681Z,100129.45
2018-08-13T18:37:46.152Z,100120.89
2018-08-13T18:40:17.365Z,100128.37
2018-08-13T18:42:45.713Z,100127.17
2018-08-13T18:45:14.108Z,100127.67
2018-08-13T18:47:42.442Z,100121.64
2018-08-13T18:50:12.944Z,100117.66
2018-08-13T18:52:41.573Z,100111.38
2018-08-13T18:55:13.318Z,100111.38
2018-08-13T18:57:41.680Z,100117.66
2018-08-13T19:00:14.789Z,100128.84
2018-08-13T19:02:43.228Z,100120.48
2018-08-13T19:05:13.317Z,100123.89
2018-08-13T19:07:41.957Z,100130.03
2018-08-13T19:10:12.176Z,100135.27
2018-08-13T19:12:40.709Z,100131.94
2018-08-13T19:15:11.713Z,100134.15
2018-08-13T19:17:40.513Z,100128.58
2018-08-13T19:20:11.480Z,100130.75
2018-08-13T19:22:40.293Z,100129.25
2018-08-13T19:25:11.508Z,100135.06
2018-08-13T19:27:40.819Z,100135.92
2018-08-13T19:30:11.423Z,100138.01
2018-08-13T19:32:39.786Z,100133.27
2018-08-13T19:35:10.050Z,100135.80
2018-08-13T19:37:39.347Z,100133.89
2018-08-13T19:40:10.064Z,100137.96
2018-08-13T19:42:39.947Z,100136.67
2018-08-13T19:45:09.698Z,100125.54
2018-08-13T19:47:38.581Z,100125.22
2018-08-13T19:50:09.559Z,100130.16
2018-08-13T19:52:39.440Z,100127.09
2018-08-13T19:55:09.401Z,100132.19
2018-08-13T19:57:38.521Z,100134.89
2018-08-13T20:00:14.258Z,100137.63
2018-08-13T20:02:42.618Z,100141.95
2018-08-13T20:05:12.172Z,100143.78
2018-08-13T20:07:40.954Z,100150.30
2018-08-13T20:10:12.636Z,100150.30
2018-08-13T20:12:41.044Z,100149.47
2018-08-13T20:15:10.748Z,100148.84
2018-08-13T20:17:40.228Z,100150.67
2018-08-13T20:20:11.813Z,100150.38
2018-08-13T20:22:40.197Z,100151.45
2018-08-13T20:25:11.150Z,100152.02
2018-08-13T20:27:40.841Z,100151.00
2018-08-13T20:30:12.239Z,100148.45
2018-08-13T20:32:40.601Z,100145.20
2018-08-13T20:35:10.039Z,100150.28
2018-08-13T20:37:39.425Z,100137.94
2018-08-13T20:40:09.873Z,100138.63
2018-08-13T20:42:39.318Z,100139.83
2018-08-13T20:45:11.031Z,100137.73
2018-08-13T20:47:40.153Z,100134.66
2018-08-13T20:50:11.299Z,100135.39
2018-08-13T20:52:41.202Z,100137.17
2018-08-13T20:55:13.516Z,100139.20
2018-08-13T20:57:42.394Z,100146.58
2018-08-13T21:00:12.281Z,100142.72
2018-08-13T21:02:42.009Z,100141.31
2018-08-13T21:05:10.876Z,100132.09
2018-08-13T21:07:39.230Z,100141.87
2018-08-13T21:10:10.101Z,100144.06
2018-08-13T21:12:39.356Z,100148.87
2018-08-13T21:15:10.001Z,100139.78
2018-08-13T21:17:39.031Z,100137.30
2018-08-13T21:20:08.518Z,100138.32
2018-08-13T21:22:38.309Z,100143.00
2018-08-13T21:25:10.983Z,100142.17
2018-08-13T21:27:40.275Z,100141.61
2018-08-13T21:30:10.025Z,100149.21
2018-08-13T21:32:39.272Z,100146.86
2018-08-13T21:35:08.661Z,100144.53
2018-08-13T21:37:37.057Z,100144.53
2018-08-13T21:40:07.631Z,100139.59
2018-08-13T21:42:35.981Z,100143.27
2018-08-13T21:45:04.356Z,100137.48
2018-08-13T21:47:32.742Z,100135.03
2018-08-13T21:50:02.031Z,100139.70
2018-08-13T21:52:30.461Z,100137.98
2018-08-13T21:54:58.800Z,100142.30
2018-08-13T21:57:27.142Z,100141.61
2018-08-13T21:59:56.002Z,100144.59
2018-08-13T22:02:24.366Z,100143.27
2018-08-13T22:04:52.693Z,100141.94
2018-08-13T22:07:21.525Z,100139.92
2018-08-13T22:09:51.404Z,100132.25
2018-08-13T22:12:21.764Z,100136.56
2018-08-13T22:14:50.689Z,100143.50
2018-08-13T22:17:19.065Z,100141.38
2018-08-13T22:19:47.385Z,100141.55
2018-08-13T22:22:16.771Z,100144.59
2018-08-13T22:25:10.169Z,100138.62
2018-08-13T22:27:40.601Z,100137.30
2018-08-13T22:30:10.523Z,100137.62
2018-08-13T22:32:40.353Z,100140.50
2018-08-13T22:35:10.165Z,100132.94
2018-08-13T22:37:40.180Z,100141.75
2018-08-13T22:40:12.485Z,100142.01
2018-08-13T22:42:41.651Z,100140.23
2018-08-13T22:45:10.885Z,100138.33
2018-08-13T22:47:41.382Z,100147.84
2018-08-13T22:50:11.173Z,100135.59
2018-08-13T22:52:40.165Z,100141.45
2018-08-13T22:55:12.245Z,100144.32
2018-08-13T22:57:40.585Z,100141.53
2018-08-13T23:00:12.514Z,100138.30
2018-08-13T23:02:41.097Z,100133.70
2018-08-13T23:05:11.513Z,100136.73
2018-08-13T23:07:41.378Z,100129.72
2018-08-13T23:10:11.592Z,100131.92
2018-08-13T23:12:40.628Z,100129.27
2018-08-13T23:15:12.357Z,100129.63
2018-08-13T23:17:41.072Z,100138.46
2018-08-13T23:20:14.688Z,100141.47
2018-08-13T23:23:03.856Z,100137.20
2018-08-13T23:25:34.749Z,100138.38
2018-08-13T23:28:04.527Z,100141.03
2018-08-13T23:30:34.017Z,100140.25
2018-08-13T23:33:02.582Z,100136.96
2018-08-13T23:35:31.718Z,100134.35
2018-08-13T23:38:00.074Z,100138.05
2018-08-13T23:40:28.594Z,100129.10
2018-08-13T23:42:56.972Z,100135.05
2018-08-13T23:45:27.888Z,100140.55
2018-08-13T23:47:57.330Z,100137.45
2018-08-13T23:50:27.209Z,100143.28
2018-08-13T23:52:57.865Z,100139.48
2018-08-13T23:55:31.768Z,100138.84
2018-08-13T23:58:01.360Z,100145.61
